»·PEaware :: N447AB KTMK-KVUO

N447AB :: KTMK-KVUO

FLIGHT INFORMATION

Flight Status: Arrived
Operator: Privately registered:
United States
More flights under this callsign
Pilot: Gabor H. (24209)
Aircraft: Unknown
(DA50)
More flights by this aircraft type
Origin: KTMK Tillamook
United States
Destination: KVUO Pearson
United States
More flights between these airports :: More routes between these airports
Route: FETUJ3 FETUJ V27 ZIGPI LOATH TOUTL
File this flight plan on PilotEdge
Remarks:
Altitude:
(Current/Filed)
11,000ft
Speed:
(Current/Filed)
160kts
Departed: 16-Oct-23 11:48 AM
Arrived: 16-Oct-23 12:32 PM
Distance/Time
Traveled:
50nm/0:44
Distance/Time
To Go:
Arrived

Flight Plot

Page will automatically refresh every two minutes.

Flight plan parsing failed; only flown route is shown


Map Options




Map Legend


Flown Route
Filed Route
Departure Airport
Arrival Airport
Navaid (VOR, NDB)
Fix

Horizontal Profiles

Position Reports

Time Latitude Longitude Heading Altitude Ground
Speed
16-Oct-23 11:37 45.418445 -123.818676 353 26ft 0kts
16-Oct-23 11:38 45.418445 -123.818676 353 26ft 0kts
16-Oct-23 11:39 45.418445 -123.818676 353 26ft 0kts
16-Oct-23 11:40 45.418445 -123.818676 353 26ft 0kts
16-Oct-23 11:41 45.418445 -123.818676 353 26ft 0kts
16-Oct-23 11:41 45.418445 -123.818676 353 26ft 0kts
16-Oct-23 11:42 45.418445 -123.818676 353 26ft 0kts
16-Oct-23 11:44 45.418228 -123.817453 158 28ft 17kts
16-Oct-23 11:45 45.414114 -123.814507 130 35ft 20kts
16-Oct-23 11:46 45.411723 -123.811693 94 42ft 0kts
16-Oct-23 11:46 45.412303 -123.811220 332 42ft 23kts
16-Oct-23 11:47 45.433576 -123.826382 325 596ft 96kts
16-Oct-23 11:48 45.457515 -123.841417 323 1648ft 98kts
16-Oct-23 11:49 45.483606 -123.857826 318 2636ft 104kts
16-Oct-23 11:51 45.514848 -123.877744 317 3818ft 107kts
16-Oct-23 11:51 45.537129 -123.891839 317 4686ft 104kts
16-Oct-23 11:52 45.563659 -123.908600 316 5720ft 103kts
16-Oct-23 11:53 45.590204 -123.925506 316 6712ft 104kts
16-Oct-23 11:54 45.616993 -123.942261 329 7696ft 112kts
16-Oct-23 11:55 45.650127 -123.941266 352 8681ft 123kts
16-Oct-23 11:56 45.684465 -123.937049 352 9649ft 126kts
16-Oct-23 11:57 45.720024 -123.932657 351 10597ft 131kts
16-Oct-23 11:58 45.760491 -123.927894 355 11016ft 174kts
16-Oct-23 11:59 45.812765 -123.921209 356 10988ft 198kts
16-Oct-23 12:00 45.853818 -123.878547 80 10965ft 197kts
16-Oct-23 12:01 45.868558 -123.803294 82 10961ft 196kts
16-Oct-23 12:02 45.883342 -123.727863 81 10954ft 196kts
16-Oct-23 12:03 45.898190 -123.651772 81 10950ft 199kts
16-Oct-23 12:04 45.913134 -123.574880 81 10949ft 200kts
16-Oct-23 12:05 45.928041 -123.497965 81 10988ft 198kts
16-Oct-23 12:06 45.942836 -123.421323 81 11007ft 200kts
16-Oct-23 12:07 45.957698 -123.343943 82 11005ft 201kts
16-Oct-23 12:08 45.972515 -123.266582 81 11002ft 200kts
16-Oct-23 12:09 45.987228 -123.189406 81 11003ft 200kts
16-Oct-23 12:10 46.001920 -123.112023 81 11004ft 200kts
16-Oct-23 12:11 46.012250 -123.034668 96 11007ft 193kts
16-Oct-23 12:12 46.014181 -122.957098 97 10980ft 195kts
16-Oct-23 12:13 46.016033 -122.879098 97 10980ft 195kts
16-Oct-23 12:14 46.017833 -122.800921 97 10982ft 195kts
16-Oct-23 12:15 46.019590 -122.720206 95 10384ft 213kts
16-Oct-23 12:16 46.021466 -122.636250 95 9216ft 205kts
16-Oct-23 12:17 46.017406 -122.561373 147 8058ft 163kts
16-Oct-23 12:18 45.979887 -122.545433 183 7170ft 135kts
16-Oct-23 12:19 45.942396 -122.543594 183 6379ft 136kts
16-Oct-23 12:20 45.904463 -122.542125 182 5580ft 137kts
16-Oct-23 12:21 45.866140 -122.540619 181 4778ft 139kts
16-Oct-23 12:22 45.829423 -122.549978 199 4224ft 138kts
16-Oct-23 12:23 45.791896 -122.569047 199 3469ft 145kts
16-Oct-23 12:24 45.753405 -122.588707 198 2693ft 148kts
16-Oct-23 12:25 45.716371 -122.607665 197 1953ft 132kts
16-Oct-23 12:26 45.683147 -122.624738 195 1513ft 124kts
16-Oct-23 12:27 45.655674 -122.641372 231 1259ft 97kts
16-Oct-23 12:28 45.658592 -122.680549 264 950ft 106kts
16-Oct-23 12:29 45.637511 -122.696676 168 402ft 80kts
16-Oct-23 12:30 45.622851 -122.675382 114 233ft 80kts
16-Oct-23 12:31 45.620154 -122.653654 96 26ft 16kts
16-Oct-23 12:32 45.621207 -122.653151 298 26ft 8kts
16-Oct-23 12:33 45.622436 -122.654205 140 28ft 0kts

Navigation Log

Ident Type
Flight plan parsing failed, navigation log unavailable